Time;durP1;ratioP1;P1;durP2;ratioP2;P2;SDS_P1;SDS_P2;PMS_P1;PMS_P2;Temp;Humidity;BMP_temperature;BMP_pressure;BME280_temperature;BME280_humidity;BME280_pressure;Samples;Min_cycle;Max_cycle;Signal;HPM_P1;HPM_P2
2021/09/19 00:00:05;;;;;;;15.93;9.50;;;;;;;;;;5034792;28;20428;-88
2021/09/19 00:02:30;;;;;;;15.77;9.35;;;;;;;;;;5034987;28;20476;-88
2021/09/19 00:04:55;;;;;;;16.10;9.32;;;;;;;;;;5034373;28;20105;-88
2021/09/19 00:07:20;;;;;;;18.60;9.20;;;;;;;;;;5035030;28;20041;-88
2021/09/19 00:09:46;;;;;;;15.98;9.52;;;;;;;;;;5039247;28;20025;-88
2021/09/19 00:12:11;;;;;;;15.98;9.73;;;;;;;;;;5051338;28;20017;-88
2021/09/19 00:14:36;;;;;;;18.08;9.95;;;;;;;;;;5054932;28;20017;-88
2021/09/19 00:17:02;;;;;;;17.38;9.13;;;;;;;;;;5026781;28;20016;-88
2021/09/19 00:19:28;;;;;;;19.42;9.68;;;;;;;;;;5054856;28;20123;-88
2021/09/19 00:21:53;;;;;;;15.23;9.05;;;;;;;;;;5054390;28;20044;-88
2021/09/19 00:24:18;;;;;;;15.75;9.35;;;;;;;;;;5054142;28;20029;-88
2021/09/19 00:26:44;;;;;;;14.18;8.95;;;;;;;;;;5054400;28;20021;-88
2021/09/19 00:29:09;;;;;;;14.85;9.02;;;;;;;;;;5049802;28;20029;-88
2021/09/19 00:31:34;;;;;;;15.68;8.27;;;;;;;;;;5047578;28;20063;-88
2021/09/19 00:34:00;;;;;;;13.82;8.93;;;;;;;;;;5041235;28;20471;-88
2021/09/19 00:36:25;;;;;;;14.10;8.77;;;;;;;;;;5052940;28;20384;-88
2021/09/19 00:38:50;;;;;;;14.55;8.20;;;;;;;;;;5044439;28;20408;-89
2021/09/19 00:41:15;;;;;;;18.05;8.63;;;;;;;;;;5054254;28;20380;-88
2021/09/19 00:43:41;;;;;;;15.05;8.95;;;;;;;;;;5053992;28;20040;-88
2021/09/19 00:46:06;;;;;;;15.60;8.68;;;;;;;;;;5051981;28;20037;-88
2021/09/19 00:48:31;;;;;;;16.60;8.93;;;;;;;;;;5046459;28;20025;-88
2021/09/19 00:50:56;;;;;;;16.20;9.20;;;;;;;;;;5055063;28;20028;-88
2021/09/19 00:53:21;;;;;;;13.93;8.32;;;;;;;;;;5053986;28;20064;-87
2021/09/19 00:55:49;;;;;;;16.38;9.52;;;;;;;;;;5054027;28;20116;-88
2021/09/19 00:58:16;;;;;;;17.05;9.20;;;;;;;;;;5053807;28;20013;-88
2021/09/19 01:00:44;;;;;;;16.35;9.57;;;;;;;;;;5039459;28;20469;-88
2021/09/19 01:03:10;;;;;;;15.70;9.45;;;;;;;;;;5053811;28;20028;-88
2021/09/19 01:05:35;;;;;;;15.77;9.05;;;;;;;;;;5053828;28;20756;-88
2021/09/19 01:08:01;;;;;;;16.35;9.27;;;;;;;;;;5053778;28;20017;-88
2021/09/19 01:10:26;;;;;;;15.48;9.40;;;;;;;;;;5053685;28;20469;-88
2021/09/19 01:12:52;;;;;;;18.88;9.82;;;;;;;;;;5053327;28;20059;-88
2021/09/19 01:15:18;;;;;;;15.18;8.68;;;;;;;;;;5053486;28;20059;-88
2021/09/19 01:17:43;;;;;;;14.90;8.68;;;;;;;;;;5053649;28;20033;-88
2021/09/19 01:20:13;;;;;;;16.42;8.75;;;;;;;;;;5053372;28;20044;-87
2021/09/19 01:22:39;;;;;;;17.55;8.95;;;;;;;;;;5047063;28;20108;-88
2021/09/19 01:25:06;;;;;;;15.43;9.00;;;;;;;;;;5053368;28;20016;-88
2021/09/19 01:27:31;;;;;;;16.23;8.75;;;;;;;;;;5054363;28;20029;-88
2021/09/19 01:29:56;;;;;;;16.50;8.43;;;;;;;;;;5052816;28;20036;-88
2021/09/19 01:32:22;;;;;;;15.93;9.30;;;;;;;;;;5053391;28;20036;-88
2021/09/19 01:34:48;;;;;;;15.23;8.82;;;;;;;;;;5053140;28;20116;-88
2021/09/19 01:37:13;;;;;;;14.95;8.95;;;;;;;;;;5042675;28;20112;-88
2021/09/19 01:39:39;;;;;;;15.25;8.88;;;;;;;;;;5054303;28;20177;-88
2021/09/19 01:42:04;;;;;;;19.85;9.20;;;;;;;;;;5052872;28;20029;-88
2021/09/19 01:44:30;;;;;;;20.65;10.30;;;;;;;;;;5052864;28;20128;-88
2021/09/19 01:46:55;;;;;;;16.17;9.77;;;;;;;;;;5052661;28;20029;-87
2021/09/19 01:49:20;;;;;;;14.40;9.00;;;;;;;;;;5053087;28;20056;-88
2021/09/19 01:51:46;;;;;;;16.45;10.35;;;;;;;;;;5042402;28;20444;-87
2021/09/19 01:54:11;;;;;;;14.80;9.20;;;;;;;;;;5052864;28;20082;-88
2021/09/19 01:56:36;;;;;;;13.93;9.45;;;;;;;;;;5054080;28;20408;-88
2021/09/19 01:59:01;;;;;;;14.32;8.95;;;;;;;;;;5052638;28;20020;-88
2021/09/19 02:01:28;;;;;;;17.25;9.50;;;;;;;;;;5052722;28;20533;-88
2021/09/19 02:03:54;;;;;;;16.73;10.15;;;;;;;;;;5053444;28;20476;-87
2021/09/19 02:06:20;;;;;;;17.25;10.88;;;;;;;;;;5052946;28;20032;-88
2021/09/19 02:08:45;;;;;;;18.45;9.65;;;;;;;;;;5052553;28;20028;-87
2021/09/19 02:11:12;;;;;;;16.40;9.82;;;;;;;;;;5052186;28;20108;-88
2021/09/19 02:13:37;;;;;;;16.17;9.65;;;;;;;;;;5048082;28;20090;-88
2021/09/19 02:16:04;;;;;;;16.67;9.90;;;;;;;;;;5052047;28;20017;-86
2021/09/19 02:18:33;;;;;;;17.00;9.68;;;;;;;;;;5039889;28;20021;-88
2021/09/19 02:20:58;;;;;;;15.00;9.93;;;;;;;;;;5052180;28;20032;-88
2021/09/19 02:23:24;;;;;;;18.25;10.40;;;;;;;;;;5039441;28;20460;-88
2021/09/19 02:25:49;;;;;;;15.05;9.25;;;;;;;;;;5052260;28;20020;-88
2021/09/19 02:28:14;;;;;;;15.43;9.75;;;;;;;;;;5053411;28;20468;-87
2021/09/19 02:30:40;;;;;;;19.75;9.80;;;;;;;;;;5052161;28;20375;-88
2021/09/19 02:33:05;;;;;;;15.25;8.50;;;;;;;;;;5051053;28;20744;-88
2021/09/19 02:35:30;;;;;;;17.50;10.20;;;;;;;;;;5052281;28;20361;-87
2021/09/19 02:37:55;;;;;;;17.42;10.05;;;;;;;;;;5052583;28;20025;-87
2021/09/19 02:40:21;;;;;;;17.95;10.27;;;;;;;;;;5037841;28;20017;-88
2021/09/19 02:42:47;;;;;;;22.92;10.32;;;;;;;;;;5051997;28;20028;-88
2021/09/19 02:45:12;;;;;;;19.48;10.65;;;;;;;;;;5051532;28;20028;-88
2021/09/19 02:47:38;;;;;;;19.20;10.05;;;;;;;;;;5051976;28;20531;-88
2021/09/19 02:50:04;;;;;;;16.90;10.55;;;;;;;;;;5051694;28;20045;-87
2021/09/19 02:52:29;;;;;;;19.83;10.93;;;;;;;;;;5053204;28;20032;-88
2021/09/19 02:54:55;;;;;;;18.90;11.68;;;;;;;;;;5044508;28;20384;-87
2021/09/19 02:57:20;;;;;;;17.55;10.02;;;;;;;;;;5051648;28;20075;-88
2021/09/19 02:59:45;;;;;;;17.80;10.45;;;;;;;;;;5041571;28;20024;-88
2021/09/19 03:02:10;;;;;;;16.52;10.10;;;;;;;;;;5047500;28;20021;-88
2021/09/19 03:04:35;;;;;;;17.40;10.77;;;;;;;;;;5051710;28;20025;-88
2021/09/19 03:07:01;;;;;;;17.90;10.70;;;;;;;;;;5051907;28;20496;-88
2021/09/19 03:09:26;;;;;;;17.15;10.70;;;;;;;;;;5052986;28;20047;-88
2021/09/19 03:11:51;;;;;;;21.55;12.20;;;;;;;;;;5051311;28;20025;-87
2021/09/19 03:14:17;;;;;;;17.08;10.80;;;;;;;;;;5036010;28;20068;-87
2021/09/19 03:16:42;;;;;;;21.45;11.05;;;;;;;;;;5050861;28;20028;-88
2021/09/19 03:19:07;;;;;;;19.58;11.05;;;;;;;;;;5051816;28;20041;-88
2021/09/19 03:21:32;;;;;;;20.13;10.70;;;;;;;;;;5051477;28;20021;-88
2021/09/19 03:23:57;;;;;;;18.77;11.10;;;;;;;;;;5051540;28;20036;-88
2021/09/19 03:26:23;;;;;;;21.58;11.40;;;;;;;;;;5051293;28;20388;-87
2021/09/19 03:28:48;;;;;;;19.88;10.75;;;;;;;;;;5042785;28;20025;-88
2021/09/19 03:31:13;;;;;;;16.23;10.93;;;;;;;;;;5044461;28;20371;-88
2021/09/19 03:33:39;;;;;;;21.55;11.57;;;;;;;;;;5051533;28;20503;-88
2021/09/19 03:36:04;;;;;;;18.05;11.02;;;;;;;;;;5052767;28;20116;-88
2021/09/19 03:38:29;;;;;;;20.05;11.40;;;;;;;;;;5051433;28;20021;-88
2021/09/19 03:40:54;;;;;;;20.42;11.60;;;;;;;;;;5051668;28;20021;-88
2021/09/19 03:43:19;;;;;;;16.73;10.38;;;;;;;;;;5051341;28;20025;-88
2021/09/19 03:45:45;;;;;;;18.90;10.93;;;;;;;;;;5051236;28;20024;-87
2021/09/19 03:48:10;;;;;;;16.70;10.52;;;;;;;;;;5051217;28;20033;-88
2021/09/19 03:50:36;;;;;;;17.27;10.35;;;;;;;;;;5043259;28;20032;-87
2021/09/19 03:53:01;;;;;;;19.58;11.05;;;;;;;;;;5052578;28;20037;-87
2021/09/19 03:55:27;;;;;;;18.42;11.07;;;;;;;;;;5052177;28;20040;-87
2021/09/19 03:57:53;;;;;;;18.33;11.38;;;;;;;;;;5051373;28;20473;-87
2021/09/19 04:00:18;;;;;;;17.63;11.02;;;;;;;;;;5051240;28;20070;-87
2021/09/19 04:02:44;;;;;;;16.92;10.73;;;;;;;;;;5051197;28;20155;-88
2021/09/19 04:05:10;;;;;;;17.42;10.48;;;;;;;;;;5052481;28;20017;-87
2021/09/19 04:07:35;;;;;;;18.05;10.95;;;;;;;;;;5051078;28;20024;-88
2021/09/19 04:10:00;;;;;;;16.90;10.70;;;;;;;;;;5054051;28;20021;-87
2021/09/19 04:12:26;;;;;;;19.33;10.88;;;;;;;;;;5040700;28;20017;-87
2021/09/19 04:14:51;;;;;;;18.60;10.13;;;;;;;;;;5040123;28;20013;-88
2021/09/19 04:17:16;;;;;;;19.90;11.00;;;;;;;;;;5055921;28;20079;-87
2021/09/19 04:19:41;;;;;;;17.83;9.88;;;;;;;;;;5054532;28;20017;-88
2021/09/19 04:22:06;;;;;;;20.67;11.30;;;;;;;;;;5054749;28;20488;-87
2021/09/19 04:24:32;;;;;;;18.10;10.75;;;;;;;;;;5054798;28;20020;-88
2021/09/19 04:26:57;;;;;;;17.27;10.00;;;;;;;;;;5054674;28;20025;-87
2021/09/19 04:29:22;;;;;;;17.13;9.65;;;;;;;;;;5051791;28;20024;-88
2021/09/19 04:31:47;;;;;;;18.75;10.40;;;;;;;;;;5054183;28;20353;-87
2021/09/19 04:34:13;;;;;;;18.02;10.27;;;;;;;;;;5054368;28;20013;-88
2021/09/19 04:36:38;;;;;;;17.92;10.30;;;;;;;;;;5054216;28;20110;-88
2021/09/19 04:39:03;;;;;;;22.30;10.02;;;;;;;;;;5085803;28;20080;-88
2021/09/19 04:41:28;;;;;;;19.70;10.75;;;;;;;;;;5033987;28;20561;-88
2021/09/19 04:43:54;;;;;;;16.70;10.30;;;;;;;;;;5042499;28;20441;-87
2021/09/19 04:46:19;;;;;;;17.08;10.75;;;;;;;;;;5033718;28;20032;-88
2021/09/19 04:48:44;;;;;;;16.88;10.38;;;;;;;;;;5042438;28;20052;-88
2021/09/19 04:51:09;;;;;;;18.45;10.20;;;;;;;;;;5037432;28;20104;-88
2021/09/19 04:53:35;;;;;;;19.08;10.95;;;;;;;;;;5034764;28;20017;-88
2021/09/19 04:56:00;;;;;;;19.50;11.35;;;;;;;;;;5046231;28;20047;-88
2021/09/19 04:58:26;;;;;;;15.90;9.93;;;;;;;;;;5036558;28;20021;-87
2021/09/19 05:00:51;;;;;;;20.35;11.57;;;;;;;;;;5043352;28;20056;-88
2021/09/19 05:03:16;;;;;;;19.13;10.80;;;;;;;;;;5038450;28;20072;-87
2021/09/19 05:05:41;;;;;;;19.40;10.40;;;;;;;;;;5040976;28;20568;-88
2021/09/19 05:08:06;;;;;;;16.88;10.40;;;;;;;;;;5040273;28;20018;-88
2021/09/19 05:10:32;;;;;;;18.15;10.85;;;;;;;;;;5039547;28;20029;-87
2021/09/19 05:12:57;;;;;;;17.67;10.88;;;;;;;;;;5044618;28;20393;-88
2021/09/19 05:15:22;;;;;;;19.60;10.70;;;;;;;;;;5037788;28;20029;-88
2021/09/19 05:17:47;;;;;;;18.50;11.02;;;;;;;;;;5038076;28;20021;-88
2021/09/19 05:20:13;;;;;;;21.58;11.73;;;;;;;;;;5041232;28;20552;-88
2021/09/19 05:22:38;;;;;;;19.95;11.30;;;;;;;;;;5036830;28;20029;-88
2021/09/19 05:25:04;;;;;;;19.85;11.40;;;;;;;;;;5040910;28;20067;-87
2021/09/19 05:27:29;;;;;;;21.25;11.35;;;;;;;;;;5037676;28;20028;-87
2021/09/19 05:29:54;;;;;;;20.52;11.43;;;;;;;;;;5039833;28;20013;-87
2021/09/19 05:32:19;;;;;;;20.65;12.15;;;;;;;;;;5032902;28;20034;-88
2021/09/19 05:34:44;;;;;;;20.92;11.10;;;;;;;;;;5038778;28;20026;-87
2021/09/19 05:37:10;;;;;;;19.48;11.55;;;;;;;;;;5035687;28;20017;-88
2021/09/19 05:39:35;;;;;;;20.98;10.93;;;;;;;;;;5038477;28;20021;-88
2021/09/19 05:42:00;;;;;;;16.75;10.60;;;;;;;;;;5044143;28;20051;-88
2021/09/19 05:44:26;;;;;;;19.77;11.55;;;;;;;;;;5038027;28;20032;-88
2021/09/19 05:46:51;;;;;;;20.85;12.20;;;;;;;;;;5036831;28;20028;-88
2021/09/19 05:49:16;;;;;;;18.67;11.15;;;;;;;;;;5038757;28;20118;-87
2021/09/19 05:51:41;;;;;;;21.83;11.93;;;;;;;;;;5040630;28;20025;-88
2021/09/19 05:54:07;;;;;;;25.10;12.40;;;;;;;;;;5039707;28;20437;-87
2021/09/19 05:56:32;;;;;;;18.48;12.32;;;;;;;;;;5041306;28;20014;-87
2021/09/19 05:58:57;;;;;;;19.83;11.68;;;;;;;;;;5038066;28;20037;-88
2021/09/19 06:01:22;;;;;;;16.98;10.73;;;;;;;;;;5041628;28;20036;-88
2021/09/19 06:03:48;;;;;;;23.70;12.18;;;;;;;;;;5035577;28;20022;-88
2021/09/19 06:06:13;;;;;;;18.73;11.10;;;;;;;;;;5042762;28;20028;-88
2021/09/19 06:08:38;;;;;;;21.42;11.90;;;;;;;;;;5035751;28;20076;-88
2021/09/19 06:11:03;;;;;;;21.40;12.43;;;;;;;;;;5042085;28;20048;-88
2021/09/19 06:13:29;;;;;;;21.50;11.65;;;;;;;;;;5041261;28;20100;-87
2021/09/19 06:15:54;;;;;;;22.70;11.20;;;;;;;;;;5032661;28;20481;-88
2021/09/19 06:18:20;;;;;;;18.88;10.93;;;;;;;;;;5039956;28;20058;-88
2021/09/19 06:20:45;;;;;;;18.60;11.38;;;;;;;;;;5033094;28;20036;-88
2021/09/19 06:23:10;;;;;;;18.30;11.40;;;;;;;;;;5038916;28;20056;-87
2021/09/19 06:25:35;;;;;;;19.95;12.32;;;;;;;;;;5034984;28;20465;-88
2021/09/19 06:28:00;;;;;;;23.40;13.10;;;;;;;;;;5035274;28;20076;-88
2021/09/19 06:30:26;;;;;;;24.52;13.18;;;;;;;;;;5036572;28;20025;-88
2021/09/19 06:32:51;;;;;;;26.27;15.93;;;;;;;;;;5033854;28;20083;-87
2021/09/19 06:35:17;;;;;;;27.00;15.57;;;;;;;;;;5037707;28;20021;-88
2021/09/19 06:37:42;;;;;;;30.75;16.83;;;;;;;;;;5034725;28;20378;-88
2021/09/19 06:40:07;;;;;;;23.15;14.68;;;;;;;;;;5036836;28;20369;-88
2021/09/19 06:42:33;;;;;;;32.17;16.23;;;;;;;;;;5035731;28;20381;-88
2021/09/19 06:44:58;;;;;;;27.50;15.65;;;;;;;;;;5037122;28;20021;-88
2021/09/19 06:47:23;;;;;;;26.90;15.40;;;;;;;;;;5034531;28;20010;-88
2021/09/19 06:49:48;;;;;;;31.15;17.55;;;;;;;;;;5038258;28;20017;-87
2021/09/19 06:52:13;;;;;;;28.38;17.77;;;;;;;;;;5035077;28;20430;-88
2021/09/19 06:54:39;;;;;;;35.25;20.52;;;;;;;;;;5036719;28;20492;-88
2021/09/19 06:57:04;;;;;;;34.53;19.70;;;;;;;;;;5033326;28;20070;-88
2021/09/19 06:59:29;;;;;;;35.75;19.40;;;;;;;;;;5037925;28;21036;-88
2021/09/19 07:01:54;;;;;;;31.98;19.23;;;;;;;;;;5034046;28;20017;-88
2021/09/19 07:04:20;;;;;;;33.08;19.02;;;;;;;;;;5038027;28;20024;-88
2021/09/19 07:06:49;;;;;;;33.22;18.98;;;;;;;;;;5039954;28;20017;-88
2021/09/19 07:09:14;;;;;;;33.42;18.85;;;;;;;;;;5037284;28;20037;-88
2021/09/19 07:11:40;;;;;;;34.80;18.83;;;;;;;;;;5039447;28;20040;-89
2021/09/19 07:14:05;;;;;;;34.15;18.63;;;;;;;;;;5039618;28;20033;-88
2021/09/19 07:16:30;;;;;;;29.98;17.90;;;;;;;;;;5035047;28;20074;-88
2021/09/19 07:18:55;;;;;;;33.80;18.30;;;;;;;;;;5037228;28;20059;-89
2021/09/19 07:21:22;;;;;;;34.17;16.95;;;;;;;;;;5034262;28;20026;-89
2021/09/19 07:23:47;;;;;;;27.30;17.42;;;;;;;;;;5039301;28;20095;-89
2021/09/19 07:26:13;;;;;;;28.17;16.27;;;;;;;;;;5031746;28;20026;-88
2021/09/19 07:28:38;;;;;;;27.58;16.25;;;;;;;;;;5034450;28;20120;-89
2021/09/19 07:31:03;;;;;;;29.73;15.60;;;;;;;;;;5030518;28;20082;-89
2021/09/19 07:33:29;;;;;;;25.27;15.68;;;;;;;;;;5034707;28;20377;-89
2021/09/19 07:35:54;;;;;;;28.10;15.40;;;;;;;;;;5032880;28;20384;-89
2021/09/19 07:38:20;;;;;;;27.02;14.88;;;;;;;;;;5035335;28;20033;-89
2021/09/19 07:40:45;;;;;;;20.05;13.30;;;;;;;;;;5041194;28;20024;-88
2021/09/19 07:43:11;;;;;;;24.08;12.35;;;;;;;;;;5033555;28;20032;-88
2021/09/19 07:45:36;;;;;;;24.73;12.50;;;;;;;;;;5044867;28;20507;-89
2021/09/19 07:48:07;;;;;;;21.35;11.18;;;;;;;;;;5040104;28;20116;-89
2021/09/19 07:50:36;;;;;;;16.92;9.98;;;;;;;;;;5052147;28;20037;-88
2021/09/19 07:53:02;;;;;;;20.90;12.65;;;;;;;;;;5041681;28;20071;-89
2021/09/19 07:55:28;;;;;;;18.42;10.77;;;;;;;;;;5034423;28;20457;-88
2021/09/19 07:57:53;;;;;;;18.15;11.35;;;;;;;;;;5036648;28;20381;-89
2021/09/19 08:00:18;;;;;;;26.65;13.57;;;;;;;;;;5036070;28;20014;-88
2021/09/19 08:02:43;;;;;;;25.52;13.60;;;;;;;;;;5043166;28;20028;-89
2021/09/19 08:05:09;;;;;;;22.08;12.82;;;;;;;;;;5035858;28;20053;-88
2021/09/19 08:07:34;;;;;;;21.48;11.70;;;;;;;;;;5043543;28;20024;-89
2021/09/19 08:09:59;;;;;;;22.17;12.88;;;;;;;;;;5036442;28;20022;-88
2021/09/19 08:12:24;;;;;;;22.17;12.68;;;;;;;;;;5044597;28;20030;-88
2021/09/19 08:14:50;;;;;;;24.15;13.50;;;;;;;;;;5044951;28;20354;-89
2021/09/19 08:17:15;;;;;;;22.08;12.45;;;;;;;;;;5043141;28;20536;-88
2021/09/19 08:19:40;;;;;;;21.52;12.75;;;;;;;;;;5038777;28;20021;-88
2021/09/19 08:22:05;;;;;;;26.13;12.40;;;;;;;;;;5033812;28;20376;-89
2021/09/19 08:24:30;;;;;;;19.73;11.63;;;;;;;;;;5040369;28;20557;-88
2021/09/19 08:26:56;;;;;;;22.55;11.30;;;;;;;;;;5037382;28;20504;-89
2021/09/19 08:29:22;;;;;;;17.25;10.38;;;;;;;;;;5041153;28;20060;-89
2021/09/19 08:31:47;;;;;;;21.08;11.25;;;;;;;;;;5034133;28;20033;-88
2021/09/19 08:34:12;;;;;;;21.55;11.32;;;;;;;;;;5040970;28;20018;-88
2021/09/19 08:36:38;;;;;;;18.00;11.55;;;;;;;;;;5034532;28;20079;-88
2021/09/19 08:39:04;;;;;;;18.13;10.18;;;;;;;;;;5034946;28;20049;-88
2021/09/19 08:41:29;;;;;;;15.63;9.27;;;;;;;;;;5047420;28;20029;-88
2021/09/19 08:43:55;;;;;;;17.92;9.20;;;;;;;;;;5039860;28;21178;-87
2021/09/19 08:46:21;;;;;;;17.92;9.35;;;;;;;;;;5041565;28;20079;-88
2021/09/19 08:48:47;;;;;;;17.35;8.50;;;;;;;;;;5038817;28;20021;-89
2021/09/19 08:51:12;;;;;;;12.65;7.72;;;;;;;;;;5034156;28;20439;-88
2021/09/19 08:53:37;;;;;;;12.32;6.78;;;;;;;;;;5037891;28;20045;-88
2021/09/19 08:56:03;;;;;;;12.82;7.10;;;;;;;;;;5038175;28;20016;-88
2021/09/19 08:58:28;;;;;;;10.27;6.78;;;;;;;;;;5034884;28;20112;-88
2021/09/19 09:00:54;;;;;;;11.35;6.75;;;;;;;;;;5044400;28;20025;-89
2021/09/19 09:03:22;;;;;;;11.05;6.25;;;;;;;;;;5037522;28;20396;-88
2021/09/19 09:06:04;;;;;;;11.52;6.13;;;;;;;;;;5040233;28;20028;-88
2021/09/19 09:08:30;;;;;;;11.80;5.47;;;;;;;;;;5033529;28;20091;-88
2021/09/19 09:10:56;;;;;;;8.35;4.38;;;;;;;;;;5036911;28;20491;-88
2021/09/19 09:13:26;;;;;;;6.72;4.25;;;;;;;;;;5041033;28;20029;-88
2021/09/19 09:16:00;;;;;;;10.25;4.40;;;;;;;;;;5033748;28;20021;-88
2021/09/19 09:18:32;;;;;;;7.30;4.18;;;;;;;;;;5040932;28;20025;-88
2021/09/19 09:20:58;;;;;;;6.30;4.10;;;;;;;;;;5042231;28;20026;-88
2021/09/19 09:23:34;;;;;;;9.68;3.75;;;;;;;;;;5037967;28;20027;-88
2021/09/19 09:26:10;;;;;;;6.45;3.70;;;;;;;;;;5033173;28;20435;-88
2021/09/19 09:28:49;;;;;;;7.53;3.88;;;;;;;;;;5035606;28;20052;-89
2021/09/19 09:31:33;;;;;;;6.63;3.80;;;;;;;;;;5038002;28;20029;-88
2021/09/19 09:33:58;;;;;;;6.70;3.85;;;;;;;;;;5037423;28;20025;-88
2021/09/19 09:36:33;;;;;;;10.35;3.83;;;;;;;;;;5041243;28;20025;-88
2021/09/19 09:38:58;;;;;;;5.10;3.20;;;;;;;;;;5048978;28;20025;-89
2021/09/19 09:41:40;;;;;;;9.98;3.55;;;;;;;;;;5033173;28;20037;-89
2021/09/19 09:44:22;;;;;;;8.30;3.63;;;;;;;;;;5035870;28;20853;-89
2021/09/19 09:46:47;;;;;;;;;;;;;;;;;;5065161;28;20627;-88
2021/09/19 09:49:13;;;;;;;8.18;3.42;;;;;;;;;;5041655;28;20388;-89
2021/09/19 09:51:38;;;;;;;6.78;3.05;;;;;;;;;;5035924;28;20286;-88
2021/09/19 09:54:03;;;;;;;6.13;3.60;;;;;;;;;;5039631;28;20036;-86
2021/09/19 09:56:29;;;;;;;8.77;3.97;;;;;;;;;;5032709;28;20022;-88
2021/09/19 09:58:56;;;;;;;4.70;3.20;;;;;;;;;;5035366;28;20043;-89
2021/09/19 10:01:21;;;;;;;8.73;2.97;;;;;;;;;;5035024;28;20071;-89
2021/09/19 10:03:47;;;;;;;6.53;2.97;;;;;;;;;;5043508;28;20021;-89
2021/09/19 10:06:13;;;;;;;7.78;3.22;;;;;;;;;;5038328;28;20416;-88
2021/09/19 10:08:39;;;;;;;7.43;3.53;;;;;;;;;;5033074;28;20358;-88
2021/09/19 10:11:08;;;;;;;7.97;3.05;;;;;;;;;;5036284;28;20029;-88
2021/09/19 10:13:35;;;;;;;6.55;3.38;;;;;;;;;;5040862;28;20028;-88
2021/09/19 10:16:01;;;;;;;5.68;3.40;;;;;;;;;;5031872;28;20063;-89
2021/09/19 10:18:27;;;;;;;5.97;2.88;;;;;;;;;;5039596;28;20112;-88
2021/09/19 10:20:52;;;;;;;5.53;3.10;;;;;;;;;;5040348;28;20033;-88
2021/09/19 10:23:25;;;;;;;7.20;3.35;;;;;;;;;;5038725;28;20107;-88
2021/09/19 10:25:50;;;;;;;5.10;2.90;;;;;;;;;;5033024;28;20477;-88
2021/09/19 10:28:15;;;;;;;7.65;2.45;;;;;;;;;;5034280;28;20109;-88
2021/09/19 10:30:59;;;;;;;6.40;3.35;;;;;;;;;;5031185;28;20026;-88
2021/09/19 10:33:32;;;;;;;5.80;3.03;;;;;;;;;;5032919;28;20021;-88
2021/09/19 10:35:59;;;;;;;6.88;3.25;;;;;;;;;;5031947;28;20028;-89
2021/09/19 10:38:33;;;;;;;4.10;2.67;;;;;;;;;;5033827;28;20421;-88
2021/09/19 10:41:12;;;;;;;4.93;2.80;;;;;;;;;;5036896;28;20083;-89
2021/09/19 10:43:47;;;;;;;6.00;2.70;;;;;;;;;;5038268;28;20032;-86
2021/09/19 10:46:32;;;;;;;5.13;2.88;;;;;;;;;;5034641;28;20053;-87
2021/09/19 10:49:14;;;;;;;4.13;2.72;;;;;;;;;;5036757;28;20051;-86
2021/09/19 10:52:18;;;;;;;6.03;3.00;;;;;;;;;;5029068;28;20075;-86
2021/09/19 10:54:46;;;;;;;5.30;3.00;;;;;;;;;;4989507;28;20493;-87
2021/09/19 10:57:28;;;;;;;7.90;3.20;;;;;;;;;;5025871;28;20135;-87
2021/09/19 11:00:12;;;;;;;4.85;3.17;;;;;;;;;;5031407;28;20026;-87
2021/09/19 11:02:38;;;;;;;6.88;3.58;;;;;;;;;;5034254;28;20121;-87
2021/09/19 11:05:23;;;;;;;7.25;2.95;;;;;;;;;;5037089;28;20036;-87
2021/09/19 11:07:49;;;;;;;6.45;2.72;;;;;;;;;;5025728;28;20029;-87
2021/09/19 11:10:14;;;;;;;7.35;3.40;;;;;;;;;;5035368;28;20025;-87
2021/09/19 11:12:43;;;;;;;6.72;3.90;;;;;;;;;;5033570;28;20039;-86
2021/09/19 11:15:11;;;;;;;5.65;3.22;;;;;;;;;;5036430;28;20025;-87
2021/09/19 11:17:42;;;;;;;6.45;3.47;;;;;;;;;;5033816;28;20026;-87
2021/09/19 11:20:13;;;;;;;4.90;2.83;;;;;;;;;;5035642;28;20025;-87
2021/09/19 11:22:44;;;;;;;6.32;3.05;;;;;;;;;;5040062;28;20037;-87
2021/09/19 11:25:10;;;;;;;7.30;3.53;;;;;;;;;;5042652;28;20025;-87
2021/09/19 11:27:38;;;;;;;4.55;2.97;;;;;;;;;;5040818;28;20477;-86
2021/09/19 11:30:04;;;;;;;5.00;3.40;;;;;;;;;;5043765;28;20096;-89
2021/09/19 11:32:30;;;;;;;4.80;2.90;;;;;;;;;;5039535;28;20104;-88
2021/09/19 11:34:55;;;;;;;6.47;2.90;;;;;;;;;;5045301;28;20041;-88
2021/09/19 11:37:20;;;;;;;8.05;2.80;;;;;;;;;;5047844;28;20369;-88
2021/09/19 11:39:45;;;;;;;6.63;2.70;;;;;;;;;;5042979;28;20477;-88
2021/09/19 11:42:12;;;;;;;5.22;2.90;;;;;;;;;;5046850;28;20017;-88
2021/09/19 11:44:42;;;;;;;4.50;3.03;;;;;;;;;;5042603;28;20072;-88
2021/09/19 11:47:08;;;;;;;5.55;2.90;;;;;;;;;;5046047;28;20420;-88
2021/09/19 11:49:33;;;;;;;4.38;2.72;;;;;;;;;;5042149;28;20025;-88
2021/09/19 11:52:00;;;;;;;6.63;2.60;;;;;;;;;;5047685;28;20045;-87
2021/09/19 11:54:25;;;;;;;3.92;2.60;;;;;;;;;;5042884;28;20010;-87
2021/09/19 11:56:50;;;;;;;4.10;2.50;;;;;;;;;;5044711;28;20432;-88
2021/09/19 11:59:16;;;;;;;4.25;2.58;;;;;;;;;;5044134;28;20473;-88
2021/09/19 12:01:42;;;;;;;3.80;2.55;;;;;;;;;;5044601;28;20469;-88
2021/09/19 12:04:08;;;;;;;8.45;2.45;;;;;;;;;;5042460;28;20056;-88
2021/09/19 12:06:34;;;;;;;4.30;2.40;;;;;;;;;;5044147;28;20021;-89
2021/09/19 12:08:59;;;;;;;4.75;2.75;;;;;;;;;;5040343;28;20499;-88
2021/09/19 12:11:41;;;;;;;3.42;2.38;;;;;;;;;;5046036;28;20487;-88
2021/09/19 12:14:14;;;;;;;4.35;2.30;;;;;;;;;;5043850;28;20113;-89
2021/09/19 12:16:40;;;;;;;8.15;2.50;;;;;;;;;;5040958;28;20013;-89
2021/09/19 12:19:17;;;;;;;5.15;2.50;;;;;;;;;;5042813;28;20032;-89
2021/09/19 12:21:51;;;;;;;4.78;2.63;;;;;;;;;;5047595;28;20464;-88
2021/09/19 12:24:19;;;;;;;6.85;2.20;;;;;;;;;;5037495;28;20033;-88
2021/09/19 12:26:45;;;;;;;3.13;1.90;;;;;;;;;;5043145;28;20017;-88
2021/09/19 12:29:11;;;;;;;3.63;2.00;;;;;;;;;;5042364;28;20079;-88
2021/09/19 12:31:43;;;;;;;5.70;2.30;;;;;;;;;;5045813;28;20392;-89
2021/09/19 12:34:10;;;;;;;3.42;2.20;;;;;;;;;;5064672;28;20059;-87
2021/09/19 12:36:39;;;;;;;2.92;1.83;;;;;;;;;;5042410;28;20025;-88
2021/09/19 12:39:04;;;;;;;4.85;2.20;;;;;;;;;;5038946;28;20706;-88
2021/09/19 12:41:31;;;;;;;4.18;1.95;;;;;;;;;;5041388;28;20114;-88
2021/09/19 12:43:57;;;;;;;5.75;2.50;;;;;;;;;;5039964;28;20607;-88
2021/09/19 12:46:22;;;;;;;4.30;2.17;;;;;;;;;;5041139;28;20028;-87
2021/09/19 12:48:47;;;;;;;4.38;1.98;;;;;;;;;;5038825;28;20017;-88
2021/09/19 12:51:16;;;;;;;2.88;2.25;;;;;;;;;;5042573;28;20028;-88
2021/09/19 12:53:44;;;;;;;4.68;2.20;;;;;;;;;;5038360;28;20468;-88
2021/09/19 12:56:10;;;;;;;5.53;2.30;;;;;;;;;;5043718;28;20031;-88
2021/09/19 12:58:35;;;;;;;3.10;2.05;;;;;;;;;;5035088;28;20104;-88
2021/09/19 13:01:01;;;;;;;2.78;1.67;;;;;;;;;;5043488;28;20021;-88
2021/09/19 13:03:27;;;;;;;2.35;1.58;;;;;;;;;;5035385;28;20025;-88
2021/09/19 13:05:53;;;;;;;1.90;1.23;;;;;;;;;;5041050;28;20392;-88
2021/09/19 13:08:18;;;;;;;4.22;1.83;;;;;;;;;;5036804;28;20040;-88
2021/09/19 13:10:44;;;;;;;2.53;1.70;;;;;;;;;;5040403;28;20026;-88
2021/09/19 13:13:09;;;;;;;3.15;1.75;;;;;;;;;;5042569;28;20021;-88
2021/09/19 13:15:35;;;;;;;3.53;1.90;;;;;;;;;;5042439;28;20032;-89
2021/09/19 13:18:01;;;;;;;3.03;1.80;;;;;;;;;;5037907;28;20093;-88
2021/09/19 13:20:27;;;;;;;2.47;1.63;;;;;;;;;;5044005;28;20466;-88
2021/09/19 13:22:52;;;;;;;2.83;1.75;;;;;;;;;;5035464;28;20025;-87
2021/09/19 13:25:18;;;;;;;4.10;2.15;;;;;;;;;;5043904;28;20468;-88
2021/09/19 13:27:43;;;;;;;4.15;1.83;;;;;;;;;;5036805;28;20533;-88
2021/09/19 13:30:09;;;;;;;4.28;1.73;;;;;;;;;;5043175;28;20021;-88
2021/09/19 13:32:34;;;;;;;2.67;1.73;;;;;;;;;;5039545;28;20034;-88
2021/09/19 13:34:59;;;;;;;2.45;1.73;;;;;;;;;;5039362;28;20026;-88
2021/09/19 13:37:24;;;;;;;3.75;1.88;;;;;;;;;;5040505;28;20017;-88
2021/09/19 13:39:50;;;;;;;4.53;2.40;;;;;;;;;;5037313;28;20017;-88
2021/09/19 13:42:15;;;;;;;4.43;2.50;;;;;;;;;;5032619;28;20159;-88
2021/09/19 13:44:40;;;;;;;3.80;2.50;;;;;;;;;;5037128;28;20029;-89
2021/09/19 13:47:06;;;;;;;4.50;2.63;;;;;;;;;;5040757;28;20021;-87
2021/09/19 13:49:32;;;;;;;4.03;2.13;;;;;;;;;;5036874;28;20104;-88
2021/09/19 13:52:00;;;;;;;3.30;1.80;;;;;;;;;;5040177;28;20030;-87
2021/09/19 13:54:25;;;;;;;4.97;2.00;;;;;;;;;;5036704;28;20098;-88
2021/09/19 13:56:50;;;;;;;3.70;2.17;;;;;;;;;;5039461;28;20457;-88
2021/09/19 13:59:16;;;;;;;4.82;2.30;;;;;;;;;;5037337;28;20021;-88
2021/09/19 14:01:42;;;;;;;3.55;2.10;;;;;;;;;;5039061;28;20057;-88
2021/09/19 14:04:07;;;;;;;6.13;2.35;;;;;;;;;;5036907;28;20020;-87
2021/09/19 14:06:34;;;;;;;5.80;2.30;;;;;;;;;;5040193;28;20028;-88
2021/09/19 14:09:00;;;;;;;4.10;2.63;;;;;;;;;;5035050;28;20017;-88
2021/09/19 14:11:25;;;;;;;4.97;2.40;;;;;;;;;;5040103;28;20116;-88
2021/09/19 14:13:50;;;;;;;2.72;1.85;;;;;;;;;;5037969;28;20021;-88
2021/09/19 14:16:15;;;;;;;4.35;2.55;;;;;;;;;;5041747;28;20466;-88
2021/09/19 14:18:41;;;;;;;5.38;2.83;;;;;;;;;;5037396;28;20043;-88
2021/09/19 14:21:06;;;;;;;4.55;2.45;;;;;;;;;;5039962;28;20416;-88
2021/09/19 14:23:31;;;;;;;5.53;2.58;;;;;;;;;;5038753;28;20495;-88